Time;durP1;ratioP1;P1;durP2;ratioP2;P2;SDS_P1;SDS_P2;PMS_P1;PMS_P2;Temp;Humidity;BMP_temperature;BMP_pressure;BME280_temperature;BME280_humidity;BME280_pressure;Samples;Min_cycle;Max_cycle;Signal;HPM_P1;HPM_P2
2022/06/06 00:00:40;;;;;;;;;;;25.20;63.00;;;;;;5026655;28;82161;-46
2022/06/06 00:03:06;;;;;;;;;;;25.20;62.90;;;;;;5026691;28;82709;-46
2022/06/06 00:05:32;;;;;;;;;;;25.20;62.90;;;;;;5026190;28;83490;-46
2022/06/06 00:07:58;;;;;;;;;;;25.20;63.00;;;;;;5026442;28;82170;-47
2022/06/06 00:10:24;;;;;;;;;;;25.20;63.10;;;;;;5026304;28;83603;-46
2022/06/06 00:12:50;;;;;;;;;;;25.10;62.90;;;;;;5029357;28;83263;-46
2022/06/06 00:15:15;;;;;;;;;;;25.00;62.70;;;;;;5027040;28;82029;-46
2022/06/06 00:17:41;;;;;;;;;;;25.10;62.70;;;;;;5026507;28;82866;-49
2022/06/06 00:20:07;;;;;;;;;;;25.10;62.70;;;;;;5025092;28;82180;-47
2022/06/06 00:22:32;;;;;;;;;;;25.00;62.50;;;;;;5025435;28;82797;-46
2022/06/06 00:24:58;;;;;;;;;;;25.00;62.50;;;;;;5026102;28;82937;-46
2022/06/06 00:27:23;;;;;;;;;;;25.00;62.50;;;;;;5026044;28;82145;-46
2022/06/06 00:29:50;;;;;;;;;;;25.00;62.60;;;;;;5026358;28;82447;-47
2022/06/06 00:35:03;;;;;;;;;;;24.90;62.70;;;;;;5029090;28;81950;-46
2022/06/06 00:37:33;;;;;;;;;;;24.90;62.70;;;;;;5025942;28;84617;-46
2022/06/06 00:40:01;;;;;;;;;;;24.90;62.80;;;;;;5026359;28;81294;-47
2022/06/06 00:42:26;;;;;;;;;;;24.90;62.70;;;;;;5025803;28;82041;-46
2022/06/06 00:45:10;;;;;;;;;;;24.90;62.80;;;;;;5026181;28;83230;-47
2022/06/06 00:47:38;;;;;;;;;;;24.90;62.80;;;;;;5025405;28;82976;-46
2022/06/06 00:50:09;;;;;;;;;;;24.90;62.80;;;;;;5025958;28;83473;-48
2022/06/06 00:52:37;;;;;;;;;;;24.90;62.80;;;;;;5025657;28;82130;-46
2022/06/06 00:55:23;;;;;;;;;;;24.80;62.80;;;;;;5025878;28;82060;-48
2022/06/06 00:57:51;;;;;;;;;;;24.80;62.80;;;;;;5028515;28;82394;-46
2022/06/06 01:00:18;;;;;;;;;;;24.80;62.80;;;;;;5025740;28;82114;-47
2022/06/06 01:02:45;;;;;;;;;;;24.80;63.00;;;;;;5025672;28;84345;-47
2022/06/06 01:05:11;;;;;;;;;;;24.80;62.90;;;;;;5025904;28;82428;-47
2022/06/06 01:07:37;;;;;;;;;;;24.80;62.80;;;;;;5025882;28;82068;-46
2022/06/06 01:10:03;;;;;;;;;;;24.80;62.90;;;;;;5024290;28;85804;-48
2022/06/06 01:12:31;;;;;;;;;;;24.80;62.90;;;;;;5024474;28;85790;-46
2022/06/06 01:14:58;;;;;;;;;;;24.80;62.90;;;;;;5025567;28;82140;-47
2022/06/06 01:17:37;;;;;;;;;;;24.70;62.90;;;;;;5028320;28;82607;-46
2022/06/06 01:20:08;;;;;;;;;;;24.70;62.90;;;;;;5025679;28;82058;-47
2022/06/06 01:22:37;;;;;;;;;;;24.70;62.90;;;;;;5025782;28;82497;-47
2022/06/06 01:25:20;;;;;;;;;;;24.70;62.90;;;;;;5025135;28;83195;-46
2022/06/06 01:27:46;;;;;;;;;;;24.70;62.90;;;;;;5025746;28;82107;-47
2022/06/06 01:30:14;;;;;;;;;;;24.70;62.90;;;;;;5025974;28;84230;-46
2022/06/06 01:32:44;;;;;;;;;;;24.60;63.00;;;;;;5025284;28;83132;-46
2022/06/06 01:35:10;;;;;;;;;;;24.60;62.90;;;;;;5025381;28;82076;-45
2022/06/06 01:37:40;;;;;;;;;;;24.60;62.90;;;;;;5024670;28;83461;-45
2022/06/06 01:40:08;;;;;;;;;;;24.60;63.10;;;;;;5028159;28;82445;-44
2022/06/06 01:42:36;;;;;;;;;;;24.50;63.60;;;;;;5025209;28;83823;-44
2022/06/06 01:45:04;;;;;;;;;;;24.50;63.00;;;;;;5025024;28;83132;-45
2022/06/06 01:47:35;;;;;;;;;;;24.50;63.10;;;;;;5025303;28;82009;-44
2022/06/06 01:50:01;;;;;;;;;;;24.50;63.10;;;;;;5025484;28;82564;-44
2022/06/06 01:52:26;;;;;;;;;;;24.50;63.10;;;;;;5024579;28;82189;-44
2022/06/06 01:54:53;;;;;;;;;;;24.50;63.10;;;;;;5025767;28;81355;-44
2022/06/06 01:57:19;;;;;;;;;;;24.50;63.10;;;;;;5025158;28;82559;-44
2022/06/06 01:59:44;;;;;;;;;;;24.50;63.20;;;;;;5025320;28;83085;-46
2022/06/06 02:02:11;;;;;;;;;;;24.50;63.30;;;;;;5027195;28;83145;-46
2022/06/06 02:04:36;;;;;;;;;;;24.50;63.30;;;;;;5024742;28;84257;-45
2022/06/06 02:07:02;;;;;;;;;;;24.50;63.90;;;;;;5024904;28;82169;-44
2022/06/06 02:09:31;;;;;;;;;;;24.40;63.30;;;;;;5025015;28;83994;-44
2022/06/06 02:12:00;;;;;;;;;;;24.40;63.30;;;;;;5024736;28;82925;-45
2022/06/06 02:14:25;;;;;;;;;;;24.40;63.30;;;;;;5025077;28;82126;-46
2022/06/06 02:16:51;;;;;;;;;;;24.40;63.30;;;;;;5026401;28;82384;-46
2022/06/06 02:19:17;;;;;;;;;;;24.30;63.30;;;;;;5028878;28;82147;-44
2022/06/06 02:21:42;;;;;;;;;;;24.30;63.40;;;;;;5028077;28;82655;-44
2022/06/06 02:24:08;;;;;;;;;;;24.30;63.40;;;;;;5030959;28;82609;-44
2022/06/06 02:26:33;;;;;;;;;;;24.30;63.40;;;;;;5027419;28;83431;-45
2022/06/06 02:28:59;;;;;;;;;;;24.30;63.50;;;;;;5028220;28;83399;-45
2022/06/06 02:31:24;;;;;;;;;;;24.30;63.50;;;;;;5027852;28;82886;-45
2022/06/06 02:33:51;;;;;;;;;;;24.20;63.50;;;;;;5028215;28;82095;-44
2022/06/06 02:36:16;;;;;;;;;;;24.20;63.50;;;;;;5027793;28;83663;-45
2022/06/06 02:38:42;;;;;;;;;;;24.20;63.50;;;;;;5028133;28;82922;-46
2022/06/06 02:41:07;;;;;;;;;;;24.20;63.60;;;;;;5027944;28;82133;-45
2022/06/06 02:43:37;;;;;;;;;;;24.20;63.60;;;;;;5028394;28;81590;-44
2022/06/06 02:46:03;;;;;;;;;;;24.20;63.70;;;;;;5030426;28;84499;-45
2022/06/06 02:48:30;;;;;;;;;;;24.20;63.70;;;;;;5027907;28;82381;-44
2022/06/06 02:50:56;;;;;;;;;;;24.20;63.70;;;;;;5026245;28;85173;-45
2022/06/06 02:53:22;;;;;;;;;;;24.10;63.70;;;;;;5027877;28;82096;-44
2022/06/06 02:55:50;;;;;;;;;;;24.10;63.70;;;;;;5027735;28;84021;-44
2022/06/06 02:58:15;;;;;;;;;;;24.10;63.80;;;;;;5027808;28;83127;-44
2022/06/06 03:00:43;;;;;;;;;;;24.10;63.80;;;;;;5027808;28;82036;-45
2022/06/06 03:03:08;;;;;;;;;;;24.10;63.80;;;;;;5027745;28;82499;-44
2022/06/06 03:05:57;;;;;;;;;;;24.00;63.80;;;;;;5027192;28;82984;-45
2022/06/06 03:08:26;;;;;;;;;;;24.00;63.90;;;;;;5024949;28;81395;-45
2022/06/06 03:10:54;;;;;;;;;;;24.00;63.90;;;;;;5027414;28;82824;-44
2022/06/06 03:13:19;;;;;;;;;;;24.00;63.90;;;;;;5027651;28;81990;-44
2022/06/06 03:20:46;;;;;;;;;;;24.00;64.00;;;;;;5026967;28;82927;-44
2022/06/06 03:21:53;;;;;;;;;;;24.00;64.00;;;;;;5026492;28;82066;-45
2022/06/06 03:24:40;;;;;;;;;;;24.00;64.00;;;;;;5027292;28;82262;-44
2022/06/06 03:27:05;;;;;;;;;;;23.90;64.00;;;;;;5027037;28;82342;-46
2022/06/06 03:29:51;;;;;;;;;;;23.90;64.00;;;;;;5030152;28;82139;-45
2022/06/06 03:32:22;;;;;;;;;;;23.90;64.10;;;;;;5026505;28;83308;-44
2022/06/06 03:34:57;;;;;;;;;;;23.90;64.20;;;;;;5027521;28;81254;-44
2022/06/06 03:37:26;;;;;;;;;;;23.90;64.20;;;;;;5027554;28;83195;-46
2022/06/06 03:39:55;;;;;;;;;;;23.90;64.20;;;;;;5026843;28;84413;-44
2022/06/06 03:42:38;;;;;;;;;;;23.80;64.10;;;;;;5026602;28;83027;-45
2022/06/06 03:45:10;;;;;;;;;;;23.80;64.20;;;;;;5026756;28;84555;-45
2022/06/06 03:47:42;;;;;;;;;;;23.80;64.20;;;;;;5026933;28;82958;-45
2022/06/06 03:50:26;;;;;;;;;;;23.80;64.20;;;;;;5026759;28;82046;-45
2022/06/06 03:52:55;;;;;;;;;;;23.80;64.20;;;;;;5029404;28;82502;-46
2022/06/06 03:55:32;;;;;;;;;;;23.80;64.30;;;;;;5026773;28;82086;-45
2022/06/06 03:57:59;;;;;;;;;;;23.80;64.30;;;;;;5026828;28;82436;-44
2022/06/06 04:00:26;;;;;;;;;;;23.80;64.20;;;;;;5027187;28;82469;-45
2022/06/06 04:02:53;;;;;;;;;;;23.70;64.30;;;;;;5027005;28;82047;-44
2022/06/06 04:05:19;;;;;;;;;;;23.70;64.30;;;;;;5026449;28;82359;-45
2022/06/06 04:07:45;;;;;;;;;;;23.70;64.30;;;;;;5025734;28;85360;-45
2022/06/06 04:10:11;;;;;;;;;;;23.70;64.30;;;;;;5026420;28;81969;-46
2022/06/06 04:12:46;;;;;;;;;;;23.70;64.30;;;;;;5026746;28;82117;-44
2022/06/06 04:15:16;;;;;;;;;;;23.70;64.40;;;;;;5029226;28;83033;-44
2022/06/06 04:17:52;;;;;;;;;;;23.70;64.40;;;;;;5026616;28;82212;-45
2022/06/06 04:20:22;;;;;;;;;;;23.60;64.40;;;;;;5026277;28;83125;-47
2022/06/06 04:23:07;;;;;;;;;;;23.60;64.40;;;;;;5026360;28;82082;-44
2022/06/06 04:25:33;;;;;;;;;;;23.60;64.50;;;;;;5026274;28;81895;-45
2022/06/06 04:28:04;;;;;;;;;;;23.60;64.40;;;;;;5026395;28;82241;-45
2022/06/06 04:30:39;;;;;;;;;;;23.60;64.40;;;;;;5026340;28;81943;-45
2022/06/06 04:33:04;;;;;;;;;;;23.60;64.60;;;;;;5025919;28;82884;-46
2022/06/06 04:35:33;;;;;;;;;;;23.60;64.60;;;;;;5025905;28;82149;-45
2022/06/06 04:37:59;;;;;;;;;;;23.60;64.50;;;;;;5028776;28;82066;-44
2022/06/06 04:40:24;;;;;;;;;;;23.60;64.50;;;;;;5025597;28;81910;-44
2022/06/06 04:42:59;;;;;;;;;;;23.60;64.50;;;;;;5026197;28;82064;-45
2022/06/06 04:45:30;;;;;;;;;;;23.60;64.60;;;;;;5026265;28;82833;-45
2022/06/06 04:47:56;;;;;;;;;;;23.50;64.40;;;;;;5025953;28;82136;-45
2022/06/06 04:50:22;;;;;;;;;;;23.50;64.50;;;;;;5026412;28;81313;-45
2022/06/06 04:52:50;;;;;;;;;;;23.50;64.50;;;;;;5025845;28;82011;-45
2022/06/06 04:55:17;;;;;;;;;;;23.50;65.10;;;;;;5025773;28;82938;-45
2022/06/06 04:57:45;;;;;;;;;;;23.50;64.50;;;;;;5025603;28;83472;-47
2022/06/06 05:00:10;;;;;;;;;;;23.50;64.60;;;;;;5028447;28;83743;-44
2022/06/06 05:02:36;;;;;;;;;;;23.50;64.60;;;;;;5025726;28;82030;-45
2022/06/06 05:05:02;;;;;;;;;;;23.50;64.70;;;;;;5025483;28;83796;-47
2022/06/06 05:07:36;;;;;;;;;;;23.50;64.70;;;;;;5025762;28;82165;-47
2022/06/06 05:10:05;;;;;;;;;;;23.50;64.60;;;;;;5026027;28;81948;-46
2022/06/06 05:12:30;;;;;;;;;;;23.50;64.70;;;;;;5025977;28;81853;-46
2022/06/06 05:15:05;;;;;;;;;;;23.50;64.70;;;;;;5026207;28;81679;-46
2022/06/06 05:17:39;;;;;;;;;;;23.50;64.70;;;;;;5025507;28;82035;-47
2022/06/06 05:20:14;;;;;;;;;;;23.50;64.70;;;;;;5028328;28;82303;-46
2022/06/06 05:23:08;;;;;;;;;;;23.40;64.80;;;;;;5025533;28;83095;-46
2022/06/06 05:25:34;;;;;;;;;;;23.40;64.90;;;;;;5015616;28;83366;-47
2022/06/06 05:28:12;;;;;;;;;;;23.40;64.80;;;;;;5025191;28;83756;-47
2022/06/06 05:30:41;;;;;;;;;;;23.40;65.00;;;;;;5025686;28;81839;-46
2022/06/06 05:33:09;;;;;;;;;;;23.40;65.00;;;;;;5025381;28;82255;-46
2022/06/06 05:36:11;;;;;;;;;;;23.40;65.00;;;;;;5025383;28;84693;-46
2022/06/06 05:38:54;;;;;;;;;;;23.40;64.90;;;;;;4983279;28;82147;-46
2022/06/06 05:41:27;;;;;;;;;;;23.40;64.90;;;;;;5022049;28;82432;-46
2022/06/06 05:43:56;;;;;;;;;;;23.50;64.90;;;;;;5027941;28;82061;-47
2022/06/06 05:46:37;;;;;;;;;;;23.50;64.90;;;;;;5025307;28;83000;-48
2022/06/06 05:49:03;;;;;;;;;;;23.50;64.80;;;;;;5024353;28;85673;-46
2022/06/06 05:51:34;;;;;;;;;;;23.50;65.10;;;;;;5025894;28;82070;-46
2022/06/06 05:54:09;;;;;;;;;;;23.40;65.10;;;;;;5028743;28;83746;-46
2022/06/06 05:56:52;;;;;;;;;;;23.40;65.10;;;;;;5028641;28;82856;-46
2022/06/06 05:59:18;;;;;;;;;;;23.40;65.20;;;;;;5028801;28;82087;-46
2022/06/06 06:01:52;;;;;;;;;;;23.40;65.20;;;;;;5028818;28;82433;-46
2022/06/06 06:04:38;;;;;;;;;;;23.40;65.20;;;;;;5028458;28;82848;-44
2022/06/06 06:07:12;;;;;;;;;;;23.40;65.20;;;;;;5009729;28;81376;-47
2022/06/06 06:09:57;;;;;;;;;;;23.40;65.20;;;;;;5027983;28;83073;-47
2022/06/06 06:12:41;;;;;;;;;;;23.40;65.20;;;;;;5028323;28;82059;-47
2022/06/06 06:15:10;;;;;;;;;;;23.40;65.20;;;;;;5027938;28;82996;-46
2022/06/06 06:17:37;;;;;;;;;;;23.40;65.10;;;;;;5028295;28;84640;-46
2022/06/06 06:20:23;;;;;;;;;;;23.50;65.20;;;;;;5028146;28;82061;-46
2022/06/06 06:22:51;;;;;;;;;;;23.40;65.30;;;;;;5028500;28;81857;-46
2022/06/06 06:25:20;;;;;;;;;;;23.40;65.30;;;;;;5027818;28;84293;-48
2022/06/06 06:27:45;;;;;;;;;;;23.40;65.20;;;;;;5028088;28;82001;-47
2022/06/06 06:30:11;;;;;;;;;;;23.40;65.30;;;;;;5030910;28;82392;-47
2022/06/06 06:33:03;;;;;;;;;;;23.40;65.30;;;;;;5028620;28;81139;-48
2022/06/06 06:35:28;;;;;;;;;;;23.40;65.30;;;;;;5028172;28;81947;-48
2022/06/06 06:38:05;;;;;;;;;;;23.40;65.40;;;;;;5028125;28;82953;-47
2022/06/06 06:40:42;;;;;;;;;;;23.40;65.30;;;;;;5027531;28;82980;-47
2022/06/06 06:43:29;;;;;;;;;;;23.40;65.40;;;;;;5027513;28;84878;-47
2022/06/06 06:46:00;;;;;;;;;;;23.40;65.40;;;;;;5028230;28;82749;-47
2022/06/06 06:48:52;;;;;;;;;;;23.40;65.40;;;;;;5027688;28;82902;-47
2022/06/06 06:51:21;;;;;;;;;;;23.40;65.40;;;;;;5024563;28;83844;-47
2022/06/06 06:54:05;;;;;;;;;;;23.40;65.40;;;;;;5030405;28;84373;-47
2022/06/06 06:56:30;;;;;;;;;;;23.40;65.40;;;;;;5027977;28;82428;-47
2022/06/06 06:59:08;;;;;;;;;;;23.40;65.40;;;;;;5028263;28;81997;-48
2022/06/06 07:10:13;;;;;;;;;;;23.40;65.40;;;;;;5027398;28;81986;-47
2022/06/06 07:12:47;;;;;;;;;;;23.40;65.40;;;;;;5027790;28;82368;-48
2022/06/06 07:15:20;;;;;;;;;;;23.40;65.40;;;;;;5027385;28;83295;-47
2022/06/06 07:17:49;;;;;;;;;;;23.40;65.50;;;;;;5030035;28;82580;-47
2022/06/06 07:20:15;;;;;;;;;;;23.40;65.50;;;;;;5027107;28;81680;-47
2022/06/06 07:23:05;;;;;;;;;;;23.40;65.40;;;;;;5027048;28;81934;-47
2022/06/06 07:25:33;;;;;;;;;;;23.40;65.50;;;;;;5027871;28;82436;-48
2022/06/06 07:27:59;;;;;;;;;;;23.40;65.40;;;;;;5026949;28;82971;-47
2022/06/06 07:30:28;;;;;;;;;;;23.40;65.50;;;;;;5027037;28;82108;-47
2022/06/06 07:32:54;;;;;;;;;;;23.40;65.60;;;;;;5026549;28;83002;-48
2022/06/06 07:35:22;;;;;;;;;;;23.40;65.60;;;;;;5026719;28;84272;-46
2022/06/06 07:37:48;;;;;;;;;;;23.40;65.50;;;;;;5030046;28;82131;-47
2022/06/06 07:40:32;;;;;;;;;;;23.40;65.50;;;;;;5026666;28;84313;-47
2022/06/06 07:43:09;;;;;;;;;;;23.40;66.20;;;;;;5027041;28;82094;-47
2022/06/06 07:45:41;;;;;;;;;;;23.40;65.50;;;;;;5027075;28;82427;-48
2022/06/06 07:48:25;;;;;;;;;;;23.40;65.50;;;;;;5026728;28;82956;-47
2022/06/06 07:51:13;;;;;;;;;;;23.40;65.60;;;;;;5027419;28;81337;-47
2022/06/06 07:53:54;;;;;;;;;;;23.40;65.60;;;;;;5027195;28;82038;-48
2022/06/06 07:56:20;;;;;;;;;;;23.50;65.60;;;;;;5026653;28;82794;-47
2022/06/06 07:59:01;;;;;;;;;;;23.40;65.60;;;;;;5026344;28;82907;-47
2022/06/06 08:01:40;;;;;;;;;;;23.40;65.60;;;;;;5029242;28;84748;-46
2022/06/06 08:04:12;;;;;;;;;;;23.50;65.70;;;;;;5026512;28;81873;-48
2022/06/06 08:06:49;;;;;;;;;;;23.40;65.70;;;;;;5026555;28;82470;-47
2022/06/06 08:09:22;;;;;;;;;;;23.40;65.60;;;;;;5026464;28;82913;-46
2022/06/06 08:11:59;;;;;;;;;;;23.50;65.60;;;;;;5026502;28;81852;-47
2022/06/06 08:14:25;;;;;;;;;;;23.50;65.60;;;;;;5025810;28;82518;-47
2022/06/06 08:17:02;;;;;;;;;;;23.40;65.50;;;;;;5026720;28;83596;-48
2022/06/06 08:19:45;;;;;;;;;;;23.40;65.50;;;;;;5026331;28;81964;-47
2022/06/06 08:22:11;;;;;;;;;;;23.50;65.70;;;;;;5026753;28;82547;-47
2022/06/06 08:24:42;;;;;;;;;;;23.50;65.60;;;;;;5028296;28;84080;-47
2022/06/06 08:27:10;;;;;;;;;;;23.50;65.50;;;;;;5026211;28;82495;-47
2022/06/06 08:29:37;;;;;;;;;;;23.40;66.10;;;;;;5025924;28;83358;-47
2022/06/06 08:32:03;;;;;;;;;;;23.50;65.50;;;;;;5026527;28;81952;-47
2022/06/06 08:34:28;;;;;;;;;;;23.50;65.60;;;;;;5026095;28;84379;-47
2022/06/06 08:37:13;;;;;;;;;;;23.50;65.70;;;;;;5026152;28;83201;-47
2022/06/06 08:39:41;;;;;;;;;;;23.50;65.60;;;;;;5026552;28;82072;-47
2022/06/06 08:42:23;;;;;;;;;;;23.40;65.60;;;;;;5026442;28;82434;-47
2022/06/06 08:44:55;;;;;;;;;;;23.40;65.60;;;;;;5026121;28;82923;-47
2022/06/06 08:47:42;;;;;;;;;;;23.40;65.60;;;;;;5028547;28;82068;-48
2022/06/06 08:53:23;;;;;;;;;;;23.40;65.70;;;;;;5026305;28;81946;-47
2022/06/06 08:55:51;;;;;;;;;;;23.40;65.70;;;;;;5025822;28;83735;-48
2022/06/06 08:58:46;;;;;;;;;;;23.50;65.70;;;;;;5025884;28;82940;-48
2022/06/06 09:01:30;;;;;;;;;;;23.50;65.60;;;;;;4987945;28;82085;-48
2022/06/06 09:04:14;;;;;;;;;;;23.50;65.70;;;;;;5025924;28;82365;-48
2022/06/06 09:06:42;;;;;;;;;;;23.50;65.60;;;;;;5025694;28;83091;-47
2022/06/06 09:09:23;;;;;;;;;;;23.50;65.60;;;;;;5026462;28;81349;-47
2022/06/06 09:12:18;;;;;;;;;;;23.50;65.50;;;;;;5028897;28;82490;-47
2022/06/06 09:15:01;;;;;;;;;;;23.50;65.50;;;;;;5015902;28;82037;-47
2022/06/06 09:17:38;;;;;;;;;;;23.60;65.50;;;;;;5025197;28;82958;-46
2022/06/06 09:20:04;;;;;;;;;;;23.50;65.30;;;;;;5025368;28;84349;-47
2022/06/06 09:22:48;;;;;;;;;;;23.60;65.30;;;;;;5025729;28;82146;-48
2022/06/06 09:25:26;;;;;;;;;;;23.60;65.30;;;;;;5026274;28;82363;-47
2022/06/06 09:28:11;;;;;;;;;;;23.60;65.40;;;;;;5028714;28;84453;-47
2022/06/06 09:30:45;;;;;;;;;;;23.60;65.30;;;;;;5028899;28;81934;-48
2022/06/06 09:33:29;;;;;;;;;;;23.50;65.30;;;;;;5029332;28;81949;-48
2022/06/06 09:35:54;;;;;;;;;;;23.60;65.40;;;;;;5032094;28;82402;-47
2022/06/06 09:38:39;;;;;;;;;;;23.60;66.10;;;;;;5029246;28;81891;-47
2022/06/06 09:41:04;;;;;;;;;;;23.60;65.30;;;;;;5028802;28;82813;-49
2022/06/06 09:43:48;;;;;;;;;;;23.60;65.30;;;;;;5028532;28;83099;-47
2022/06/06 09:46:13;;;;;;;;;;;23.60;65.30;;;;;;5028989;28;82500;-47
2022/06/06 09:48:58;;;;;;;;;;;23.70;65.30;;;;;;5028962;28;83023;-45
2022/06/06 09:51:32;;;;;;;;;;;23.70;65.60;;;;;;5028441;28;82116;-47
2022/06/06 10:00:07;;;;;;;;;;;23.70;65.90;;;;;;5026434;28;82002;-46
2022/06/06 10:02:38;;;;;;;;;;;23.70;66.00;;;;;;5029186;28;82148;-46
2022/06/06 10:05:21;;;;;;;;;;;23.70;65.60;;;;;;5028658;28;82079;-47
2022/06/06 10:07:46;;;;;;;;;;;23.70;65.60;;;;;;5028525;28;83857;-47
2022/06/06 10:10:24;;;;;;;;;;;23.70;65.70;;;;;;5027770;28;84076;-47
2022/06/06 10:12:59;;;;;;;;;;;23.80;65.50;;;;;;5028629;28;82115;-47
2022/06/06 10:15:31;;;;;;;;;;;23.80;66.10;;;;;;5028553;28;82327;-46
2022/06/06 10:18:13;;;;;;;;;;;23.80;65.60;;;;;;5028195;28;82398;-46
2022/06/06 10:20:48;;;;;;;;;;;23.80;65.50;;;;;;5031039;28;82126;-47
2022/06/06 10:23:23;;;;;;;;;;;23.80;65.40;;;;;;5028492;28;83100;-47
2022/06/06 10:25:57;;;;;;;;;;;23.70;65.50;;;;;;5028099;28;82062;-47
2022/06/06 10:28:31;;;;;;;;;;;23.80;65.60;;;;;;5028649;28;82027;-47
2022/06/06 10:31:00;;;;;;;;;;;23.70;65.60;;;;;;5027979;28;82942;-48
2022/06/06 10:33:37;;;;;;;;;;;23.70;65.50;;;;;;5028379;28;82083;-46
2022/06/06 10:36:21;;;;;;;;;;;23.70;65.50;;;;;;5027621;28;82887;-48
2022/06/06 10:38:47;;;;;;;;;;;23.70;65.40;;;;;;5027500;28;83028;-48
2022/06/06 10:41:25;;;;;;;;;;;23.70;65.30;;;;;;5027963;28;82082;-47
2022/06/06 10:44:00;;;;;;;;;;;23.80;65.20;;;;;;5030731;28;82249;-47
2022/06/06 10:46:29;;;;;;;;;;;23.70;65.10;;;;;;5027789;28;81985;-47
2022/06/06 10:49:11;;;;;;;;;;;23.70;65.10;;;;;;5028049;28;82470;-48
2022/06/06 10:51:52;;;;;;;;;;;23.70;64.90;;;;;;5023616;28;88270;-47
2022/06/06 10:54:26;;;;;;;;;;;23.70;64.90;;;;;;5025184;28;86248;-47
2022/06/06 10:56:55;;;;;;;;;;;23.70;64.80;;;;;;5024578;28;87065;-46
2022/06/06 10:59:37;;;;;;;;;;;23.70;64.80;;;;;;5024209;28;87845;-47
2022/06/06 11:02:21;;;;;;;;;;;23.70;64.80;;;;;;5023432;28;88032;-46
2022/06/06 11:04:52;;;;;;;;;;;23.70;64.80;;;;;;5024383;28;88269;-48
2022/06/06 11:07:36;;;;;;;;;;;23.60;64.90;;;;;;5027155;28;87929;-47
2022/06/06 11:10:19;;;;;;;;;;;23.70;65.10;;;;;;5024276;28;86966;-47
2022/06/06 11:13:10;;;;;;;;;;;23.60;65.10;;;;;;5023700;28;88136;-47
2022/06/06 11:15:38;;;;;;;;;;;23.60;65.20;;;;;;5004692;28;87244;-46
2022/06/06 11:18:33;;;;;;;;;;;23.60;65.20;;;;;;5024180;28;87390;-46
2022/06/06 11:21:12;;;;;;;;;;;23.60;65.30;;;;;;4986273;28;87165;-46
2022/06/06 11:23:38;;;;;;;;;;;23.60;65.40;;;;;;5024174;28;86933;-47
2022/06/06 11:26:13;;;;;;;;;;;23.60;65.50;;;;;;5024104;28;87497;-48
2022/06/06 11:28:42;;;;;;;;;;;23.60;65.50;;;;;;5022507;28;90238;-47
2022/06/06 11:31:08;;;;;;;;;;;23.60;65.50;;;;;;5026990;28;87122;-46
2022/06/06 11:33:46;;;;;;;;;;;23.60;65.50;;;;;;5023226;28;89265;-47
2022/06/06 11:36:17;;;;;;;;;;;23.60;65.60;;;;;;5023937;28;87136;-47
2022/06/06 11:38:46;;;;;;;;;;;23.50;65.60;;;;;;5023915;28;87493;-47
2022/06/06 11:41:24;;;;;;;;;;;23.50;65.60;;;;;;5023157;28;89217;-47
2022/06/06 11:44:08;;;;;;;;;;;23.50;65.60;;;;;;5023645;28;87158;-48
2022/06/06 11:46:46;;;;;;;;;;;23.50;65.60;;;;;;5023919;28;87958;-48
2022/06/06 11:49:30;;;;;;;;;;;23.50;65.60;;;;;;5023494;28;88519;-47
2022/06/06 11:51:55;;;;;;;;;;;23.50;65.70;;;;;;5023326;28;87147;-46
2022/06/06 11:54:34;;;;;;;;;;;23.50;65.80;;;;;;5025763;28;87954;-46
2022/06/06 11:57:18;;;;;;;;;;;23.40;65.80;;;;;;5023465;28;87459;-47
2022/06/06 11:59:48;;;;;;;;;;;23.50;65.80;;;;;;5023377;28;87269;-46
2022/06/06 12:02:17;;;;;;;;;;;23.50;65.90;;;;;;5023157;28;88057;-47
2022/06/06 12:04:48;;;;;;;;;;;23.50;65.90;;;;;;5023475;28;87147;-47
2022/06/06 12:07:25;;;;;;;;;;;23.50;65.80;;;;;;5023530;28;87513;-46
2022/06/06 12:09:57;;;;;;;;;;;23.50;65.90;;;;;;5023120;28;88029;-46
2022/06/06 12:12:25;;;;;;;;;;;23.40;65.90;;;;;;5023938;28;86381;-46
2022/06/06 12:15:06;;;;;;;;;;;23.40;65.90;;;;;;5025926;28;86917;-47
2022/06/06 12:17:33;;;;;;;;;;;23.50;65.80;;;;;;5022932;28;87020;-47
2022/06/06 12:20:17;;;;;;;;;;;23.40;65.80;;;;;;5022534;28;88561;-46
2022/06/06 12:22:54;;;;;;;;;;;23.50;65.90;;;;;;5022771;28;88028;-47
2022/06/06 12:25:55;;;;;;;;;;;23.40;65.90;;;;;;5023093;28;87066;-47
2022/06/06 12:28:41;;;;;;;;;;;23.50;65.90;;;;;;4980454;28;87516;-46
2022/06/06 12:31:25;;;;;;;;;;;23.40;65.90;;;;;;5019647;28;88084;-47
2022/06/06 12:33:54;;;;;;;;;;;23.40;65.90;;;;;;5022838;28;87188;-47
2022/06/06 12:36:20;;;;;;;;;;;23.50;65.80;;;;;;5022545;28;87437;-47
2022/06/06 12:38:46;;;;;;;;;;;23.50;66.50;;;;;;5025970;28;87350;-48
2022/06/06 12:41:17;;;;;;;;;;;23.50;65.90;;;;;;5022712;28;88153;-47
2022/06/06 12:43:48;;;;;;;;;;;23.50;65.90;;;;;;5022470;28;88105;-46
2022/06/06 12:46:32;;;;;;;;;;;23.50;65.90;;;;;;5022162;28;88064;-47
2022/06/06 12:49:24;;;;;;;;;;;23.50;65.90;;;;;;5022629;28;88430;-47
2022/06/06 12:52:08;;;;;;;;;;;23.50;65.90;;;;;;5019567;28;88028;-48
2022/06/06 12:55:26;;;;;;;;;;;23.40;65.90;;;;;;5022840;28;87214;-47
2022/06/06 12:57:46;;;;;;;;;;;23.40;66.10;;;;;;5021881;28;88341;-47
2022/06/06 13:00:12;;;;;;;;;;;23.40;65.90;;;;;;5004650;28;89320;-47
2022/06/06 13:02:38;;;;;;;;;;;23.50;65.90;;;;;;5025511;28;87096;-47
2022/06/06 13:05:08;;;;;;;;;;;23.50;65.90;;;;;;5022946;28;86903;-47
2022/06/06 13:07:41;;;;;;;;;;;23.50;65.70;;;;;;5022270;28;87110;-48
2022/06/06 13:10:12;;;;;;;;;;;23.50;66.30;;;;;;5022597;28;87420;-47
2022/06/06 13:12:47;;;;;;;;;;;23.60;66.20;;;;;;5021248;28;90198;-47
2022/06/06 13:15:15;;;;;;;;;;;23.60;65.50;;;;;;5022346;28;87780;-47
2022/06/06 13:18:04;;;;;;;;;;;23.60;65.50;;;;;;5022563;28;87394;-47
2022/06/06 13:20:29;;;;;;;;;;;23.60;65.50;;;;;;5001655;28;87985;-47
2022/06/06 13:23:10;;;;;;;;;;;23.60;65.60;;;;;;5022180;28;87080;-48
2022/06/06 13:25:39;;;;;;;;;;;23.60;65.50;;;;;;5024898;28;87399;-46
2022/06/06 13:28:16;;;;;;;;;;;23.40;65.70;;;;;;5021806;28;87850;-51
2022/06/06 13:30:45;;;;;;;;;;;23.30;65.30;;;;;;5022861;28;87252;-57
2022/06/06 13:36:34;;;;;;;;;;;23.10;65.40;;;;;;5044292;28;80253;-53
2022/06/06 13:39:13;;;;;;;;;;;23.10;65.60;;;;;;5044071;28;80227;-54
2022/06/06 13:44:25;;;;;;;;;;;23.00;64.20;;;;;;5064984;27;80221;-49
2022/06/06 13:49:09;;;;;;;;;;;23.00;63.70;;;;;;5064889;27;80429;-55
2022/06/06 13:51:47;;;;;;;;;;;23.00;64.20;;;;;;5063785;27;80162;-52
2022/06/06 13:54:31;;;;;;;;;;;23.00;64.20;;;;;;5064480;27;80692;-52
2022/06/06 13:57:35;;;;;;;;;;;23.10;64.20;;;;;;5064266;27;81271;-46
2022/06/06 14:00:10;;;;;;;;;;;23.10;64.30;;;;;;5041352;28;80366;-46
2022/06/06 14:04:53;;;;;;;;;;;23.30;64.00;;;;;;5064896;27;80243;-50
2022/06/06 14:07:21;;;;;;;;;;;23.30;64.40;;;;;;5064534;27;80180;-54
2022/06/06 14:12:46;;;;;;;;;;;23.40;64.20;;;;;;5065646;27;80161;-44
2022/06/06 14:15:14;;;;;;;;;;;23.20;64.50;;;;;;5064237;27;80115;-50
2022/06/06 14:17:41;;;;;;;;;;;23.20;64.70;;;;;;5064378;27;80710;-49
2022/06/06 14:20:13;;;;;;;;;;;23.10;64.80;;;;;;5064104;27;81169;-47
2022/06/06 14:22:39;;;;;;;;;;;23.10;64.90;;;;;;5064166;27;80161;-52
2022/06/06 14:25:06;;;;;;;;;;;23.10;64.80;;;;;;5064108;27;80658;-50
2022/06/06 14:27:32;;;;;;;;;;;23.10;64.90;;;;;;5064039;27;80384;-49
2022/06/06 14:29:59;;;;;;;;;;;23.10;65.00;;;;;;5064154;27;79996;-50
2022/06/06 14:32:24;;;;;;;;;;;23.00;65.00;;;;;;5066314;27;80601;-48
2022/06/06 14:34:51;;;;;;;;;;;23.00;65.20;;;;;;5064119;27;80361;-53
2022/06/06 14:37:19;;;;;;;;;;;23.00;65.30;;;;;;5064050;27;80692;-48
2022/06/06 14:39:48;;;;;;;;;;;23.00;65.00;;;;;;5063695;27;81115;-55
2022/06/06 14:42:15;;;;;;;;;;;23.00;64.90;;;;;;5063784;27;80760;-54
2022/06/06 14:44:42;;;;;;;;;;;23.00;64.80;;;;;;5063580;27;82226;-55
2022/06/06 14:47:13;;;;;;;;;;;22.90;65.00;;;;;;5063713;27;81547;-45
2022/06/06 14:49:41;;;;;;;;;;;22.90;65.10;;;;;;5063433;27;80315;-52
2022/06/06 14:52:11;;;;;;;;;;;23.00;65.20;;;;;;5063442;27;80690;-53
2022/06/06 14:54:38;;;;;;;;;;;23.00;65.10;;;;;;5066177;27;81940;-50
2022/06/06 14:57:05;;;;;;;;;;;22.90;65.00;;;;;;5063774;27;80263;-53
2022/06/06 14:59:41;;;;;;;;;;;23.00;65.10;;;;;;5063644;27;81237;-48
2022/06/06 15:02:13;;;;;;;;;;;23.00;65.20;;;;;;5063371;27;80682;-57
2022/06/06 15:04:39;;;;;;;;;;;23.00;65.20;;;;;;5063282;27;80697;-55
2022/06/06 15:07:04;;;;;;;;;;;23.00;65.20;;;;;;5063319;27;81708;-52
2022/06/06 15:09:43;;;;;;;;;;;23.00;65.20;;;;;;5063480;27;80386;-55
2022/06/06 15:12:23;;;;;;;;;;;23.00;65.70;;;;;;5062598;27;80813;-55
2022/06/06 15:14:59;;;;;;;;;;;23.00;66.20;;;;;;5063175;27;82952;-56
2022/06/06 15:20:15;;;;;;;;;;;23.00;67.10;;;;;;5063391;27;80508;-55
2022/06/06 15:22:42;;;;;;;;;;;23.00;67.40;;;;;;5058016;27;80400;-52
2022/06/06 15:25:15;;;;;;;;;;;22.90;67.80;;;;;;5049700;28;80893;-47
2022/06/06 15:27:59;;;;;;;;;;;22.90;67.70;;;;;;5049426;28;81456;-56